Time;durP1;ratioP1;P1;durP2;ratioP2;P2;SDS_P1;SDS_P2;PMS_P1;PMS_P2;Temp;Humidity;BMP_temperature;BMP_pressure;BME280_temperature;BME280_humidity;BME280_pressure;Samples;Min_cycle;Max_cycle;Signal;HPM_P1;HPM_P2
2023/03/04 03:02:07;;;;;;;55.93;36.63;;;-0.40;99.90;;;;;;5296291;23;20486;-81
2023/03/04 03:04:36;;;;;;;50.97;35.60;;;-0.40;99.90;;;;;;4968708;28;20457;-78
2023/03/04 03:07:07;;;;;;;49.87;34.50;;;-0.50;99.90;;;;;;4964731;28;20473;-78
2023/03/04 03:09:34;;;;;;;56.27;37.33;;;-0.50;99.90;;;;;;4973200;28;20955;-78
2023/03/04 03:12:01;;;;;;;60.10;38.50;;;-0.40;99.90;;;;;;4958604;28;20889;-79
2023/03/04 03:14:30;;;;;;;56.03;36.23;;;-0.40;99.90;;;;;;4953927;28;20852;-79
2023/03/04 03:16:57;;;;;;;52.73;35.83;;;-0.50;99.90;;;;;;4955340;28;20455;-79
2023/03/04 03:19:25;;;;;;;51.10;32.93;;;-0.50;99.90;;;;;;4954618;28;20443;-81
2023/03/04 03:21:53;;;;;;;51.93;34.63;;;-0.60;99.90;;;;;;4954268;28;20502;-81
2023/03/04 03:24:20;;;;;;;57.10;38.87;;;-0.60;99.90;;;;;;4955920;28;20455;-81
2023/03/04 03:26:46;;;;;;;61.27;38.07;;;-0.60;99.90;;;;;;4955838;28;20482;-80
2023/03/04 03:29:14;;;;;;;64.87;39.27;;;-0.60;99.90;;;;;;4955781;28;20538;-81
2023/03/04 03:31:41;;;;;;;63.90;39.40;;;-0.50;99.90;;;;;;4954595;28;20481;-79
2023/03/04 03:34:08;;;;;;;56.13;37.27;;;-0.50;99.90;;;;;;4952849;28;20450;-78
2023/03/04 03:36:37;;;;;;;56.63;37.13;;;-0.50;99.90;;;;;;4953905;28;20828;-79
2023/03/04 03:39:04;;;;;;;47.70;34.13;;;-0.60;99.90;;;;;;4952755;28;20462;-78
2023/03/04 03:41:31;;;;;;;50.77;36.77;;;-0.70;99.90;;;;;;4952865;28;20997;-79
2023/03/04 03:43:57;;;;;;;52.60;36.30;;;-0.70;99.90;;;;;;4952808;28;20876;-78
2023/03/04 03:46:24;;;;;;;57.20;36.40;;;-0.70;99.90;;;;;;4952587;28;20481;-79
2023/03/04 03:48:51;;;;;;;60.37;40.33;;;-0.80;99.90;;;;;;4952686;28;20474;-79
2023/03/04 03:51:18;;;;;;;55.13;37.90;;;-0.80;99.90;;;;;;4952230;28;20482;-80
2023/03/04 03:53:46;;;;;;;60.37;38.80;;;-0.90;99.90;;;;;;4950088;28;20455;-83
2023/03/04 03:56:13;;;;;;;55.63;36.27;;;-0.90;99.90;;;;;;4954856;28;20908;-79
2023/03/04 03:58:42;;;;;;;58.17;38.43;;;-0.90;99.90;;;;;;4953739;28;20443;-83
2023/03/04 04:01:09;;;;;;;56.67;36.40;;;-1.00;99.90;;;;;;4951691;28;20839;-80
2023/03/04 04:03:36;;;;;;;56.40;36.13;;;-1.00;99.90;;;;;;4952752;28;20451;-84
2023/03/04 04:06:03;;;;;;;50.93;34.33;;;-1.10;99.90;;;;;;4953264;28;20520;-83
2023/03/04 04:08:30;;;;;;;55.37;37.03;;;-1.10;99.90;;;;;;4953727;28;20897;-81
2023/03/04 04:10:58;;;;;;;63.03;37.93;;;-1.10;99.90;;;;;;4955315;28;20466;-82
2023/03/04 04:13:25;;;;;;;57.47;38.50;;;-1.10;99.90;;;;;;4953142;28;20925;-81
2023/03/04 04:15:52;;;;;;;61.23;38.60;;;-1.10;99.90;;;;;;4953158;28;20466;-82
2023/03/04 04:18:19;;;;;;;59.00;38.87;;;-1.00;99.90;;;;;;4953951;28;20443;-82
2023/03/04 04:20:46;;;;;;;59.03;37.43;;;-1.00;99.90;;;;;;4951394;28;20526;-82
2023/03/04 04:23:13;;;;;;;55.27;37.80;;;-1.00;99.90;;;;;;4953609;28;20447;-82
2023/03/04 04:25:40;;;;;;;50.77;35.00;;;-1.00;99.90;;;;;;4948640;28;20459;-79
2023/03/04 04:28:08;;;;;;;60.23;38.03;;;-1.10;99.90;;;;;;4954824;28;20829;-79
2023/03/04 04:30:35;;;;;;;51.23;35.17;;;-1.10;99.90;;;;;;4956188;28;20965;-79
2023/03/04 04:33:03;;;;;;;53.50;36.57;;;-1.20;99.90;;;;;;4955967;28;20564;-79
2023/03/04 04:35:30;;;;;;;55.60;37.63;;;-1.20;99.90;;;;;;4957270;28;20442;-79
2023/03/04 04:37:57;;;;;;;58.07;38.73;;;-1.30;99.90;;;;;;4956011;28;20810;-79
2023/03/04 04:40:24;;;;;;;54.50;37.53;;;-1.30;99.90;;;;;;4956400;28;20891;-79
2023/03/04 04:42:51;;;;;;;57.70;38.27;;;-1.30;99.90;;;;;;4949534;28;20463;-79
2023/03/04 04:45:19;;;;;;;60.40;38.77;;;-1.20;99.90;;;;;;4955069;28;20513;-79
2023/03/04 04:47:46;;;;;;;59.63;37.63;;;-1.20;99.90;;;;;;4957691;28;20486;-78
2023/03/04 04:50:16;;;;;;;52.20;35.57;;;-1.30;99.90;;;;;;4958506;28;20466;-79
2023/03/04 04:52:43;;;;;;;56.50;38.23;;;-1.30;99.90;;;;;;4950097;28;20531;-79
2023/03/04 04:55:10;;;;;;;56.73;38.00;;;-1.30;99.90;;;;;;4959264;28;20438;-79
2023/03/04 04:57:37;;;;;;;56.73;37.27;;;-1.30;99.90;;;;;;4959430;28;20431;-79
2023/03/04 05:00:05;;;;;;;63.63;38.57;;;-1.30;99.90;;;;;;4959393;28;20451;-84
2023/03/04 05:02:35;;;;;;;56.77;38.60;;;-1.30;99.90;;;;;;4955310;28;20569;-80
2023/03/04 05:05:02;;;;;;;54.83;36.90;;;-1.30;99.90;;;;;;4955061;28;20457;-79
2023/03/04 05:07:29;;;;;;;65.17;39.07;;;-1.40;99.90;;;;;;4954946;28;20482;-80
2023/03/04 05:09:56;;;;;;;59.50;41.23;;;-1.40;99.90;;;;;;4955529;28;20501;-80
2023/03/04 05:12:22;;;;;;;63.40;39.70;;;-1.30;99.90;;;;;;4958727;28;20471;-83
2023/03/04 05:14:49;;;;;;;62.00;40.40;;;-1.40;99.90;;;;;;4955046;28;20446;-81
2023/03/04 05:17:16;;;;;;;58.07;36.90;;;-1.30;99.90;;;;;;4956109;28;20443;-82
2023/03/04 05:19:44;;;;;;;61.53;39.57;;;-1.40;99.90;;;;;;4956280;28;20469;-81
2023/03/04 05:22:11;;;;;;;58.47;37.07;;;-1.50;99.90;;;;;;4955680;28;20492;-80
2023/03/04 05:24:38;;;;;;;61.13;39.80;;;-1.50;99.90;;;;;;4955435;28;20463;-80
2023/03/04 05:27:05;;;;;;;62.17;39.57;;;-1.50;99.90;;;;;;4958438;28;20483;-82
2023/03/04 05:29:31;;;;;;;57.97;37.50;;;-1.50;99.90;;;;;;4955416;28;20529;-81
2023/03/04 05:31:58;;;;;;;59.03;38.13;;;-1.50;99.90;;;;;;4953059;28;21016;-85
2023/03/04 05:34:25;;;;;;;51.77;35.00;;;-1.60;99.90;;;;;;4949350;29;20450;-82
2023/03/04 05:36:53;;;;;;;60.73;38.70;;;-1.60;99.90;;;;;;4949189;28;20470;-80
2023/03/04 05:39:20;;;;;;;61.33;38.43;;;-1.60;99.90;;;;;;4944157;28;20470;-81
2023/03/04 05:41:47;;;;;;;57.87;36.53;;;-1.70;99.90;;;;;;4954730;28;20474;-80
2023/03/04 05:44:14;;;;;;;59.10;37.17;;;-1.70;99.90;;;;;;4954754;28;20911;-80
2023/03/04 05:46:41;;;;;;;66.03;40.20;;;-1.70;99.90;;;;;;4954915;28;20480;-81
2023/03/04 05:49:08;;;;;;;69.50;40.07;;;-1.60;99.90;;;;;;4955495;28;20987;-78
2023/03/04 05:51:34;;;;;;;59.07;40.20;;;-1.50;99.90;;;;;;4955628;28;20890;-81
2023/03/04 05:54:03;;;;;;;61.00;39.07;;;-1.50;99.90;;;;;;4956407;28;20438;-78
2023/03/04 05:56:30;;;;;;;62.73;39.87;;;-1.50;99.90;;;;;;4954564;28;20462;-84
2023/03/04 05:58:57;;;;;;;54.10;36.97;;;-1.60;99.90;;;;;;4963625;28;20474;-78
2023/03/04 06:01:24;;;;;;;66.93;39.63;;;-1.60;99.90;;;;;;4959574;28;21004;-77
2023/03/04 06:03:51;;;;;;;57.50;38.13;;;-1.60;99.90;;;;;;4958734;28;20450;-78
2023/03/04 06:06:18;;;;;;;60.87;38.67;;;-1.50;99.90;;;;;;4959671;28;20980;-78
2023/03/04 06:08:45;;;;;;;65.13;38.67;;;-1.50;99.90;;;;;;4961490;28;20542;-77
2023/03/04 06:11:13;;;;;;;58.23;37.60;;;-1.50;99.90;;;;;;4960853;28;20458;-77
2023/03/04 06:13:40;;;;;;;59.90;40.00;;;-1.50;99.90;;;;;;4961262;28;21023;-78
2023/03/04 06:16:07;;;;;;;59.57;39.27;;;-1.50;99.90;;;;;;4955702;28;20446;-83
2023/03/04 06:18:34;;;;;;;57.67;38.17;;;-1.50;99.90;;;;;;4954153;28;20454;-82
2023/03/04 06:21:02;;;;;;;58.77;37.97;;;-1.50;99.90;;;;;;4953543;28;20915;-83
2023/03/04 06:23:30;;;;;;;55.80;36.73;;;-1.50;99.90;;;;;;4955136;28;20525;-83
2023/03/04 06:25:59;;;;;;;67.37;39.40;;;-1.50;99.90;;;;;;4954866;28;20446;-83
2023/03/04 06:28:28;;;;;;;59.97;37.60;;;-1.30;99.90;;;;;;4951025;28;20462;-80
2023/03/04 06:30:56;;;;;;;54.10;35.53;;;-1.30;99.90;;;;;;4948553;28;20479;-86
2023/03/04 06:33:23;;;;;;;60.90;38.53;;;-1.30;99.90;;;;;;4953860;28;20682;-80
2023/03/04 06:35:54;;;;;;;57.03;36.80;;;-1.30;99.90;;;;;;4956039;28;20474;-85
2023/03/04 06:38:21;;;;;;;58.30;39.00;;;-1.30;99.90;;;;;;4957922;28;20435;-85
2023/03/04 06:40:48;;;;;;;60.13;39.97;;;-1.20;99.90;;;;;;4954933;28;20462;-82
2023/03/04 06:43:14;;;;;;;57.83;37.70;;;-1.20;99.90;;;;;;4954094;28;20509;-84
2023/03/04 06:45:42;;;;;;;58.93;37.90;;;-1.00;99.90;;;;;;4950085;28;21032;-84
2023/03/04 06:48:09;;;;;;;55.80;36.40;;;-0.90;99.90;;;;;;4954719;28;20479;-80
2023/03/04 06:50:36;;;;;;;56.63;38.43;;;-0.70;99.90;;;;;;4953790;28;20984;-83
2023/03/04 06:53:03;;;;;;;61.93;40.10;;;-0.50;99.90;;;;;;4953592;28;20513;-82
2023/03/04 06:55:30;;;;;;;54.07;38.80;;;-0.40;99.90;;;;;;4952698;28;20455;-82
2023/03/04 06:57:56;;;;;;;54.57;37.97;;;-0.20;99.90;;;;;;4953399;28;20969;-83
2023/03/04 07:00:23;;;;;;;53.97;36.40;;;-0.10;99.90;;;;;;4954261;28;20908;-82
2023/03/04 07:02:52;;;;;;;55.37;38.53;;;0.00;99.90;;;;;;4954614;28;20452;-82
2023/03/04 07:05:18;;;;;;;58.13;40.23;;;0.20;99.90;;;;;;4945646;28;20459;-82
2023/03/04 07:07:45;;;;;;;60.17;39.47;;;0.30;99.90;;;;;;4949618;28;20539;-86
2023/03/04 07:10:12;;;;;;;53.47;36.90;;;0.50;99.90;;;;;;4955016;28;20895;-85
2023/03/04 07:12:39;;;;;;;54.40;38.23;;;0.70;99.90;;;;;;4952519;28;20550;-86
2023/03/04 07:15:07;;;;;;;56.53;38.57;;;0.90;99.90;;;;;;4956800;28;20463;-86
2023/03/04 07:17:34;;;;;;;60.40;39.00;;;1.00;99.90;;;;;;4956389;28;20512;-85
2023/03/04 07:20:03;;;;;;;51.73;35.97;;;1.10;99.90;;;;;;4955917;28;20485;-86
2023/03/04 07:22:30;;;;;;;50.07;38.07;;;1.30;99.90;;;;;;4956662;28;20595;-83
2023/03/04 07:24:56;;;;;;;52.43;37.17;;;1.50;99.90;;;;;;4959366;28;20520;-85
2023/03/04 07:27:24;;;;;;;55.20;36.90;;;1.70;99.90;;;;;;4958447;28;20535;-85
2023/03/04 07:29:51;;;;;;;50.70;35.80;;;1.80;99.90;;;;;;4958422;28;20516;-86
2023/03/04 07:32:18;;;;;;;54.73;35.23;;;1.90;99.90;;;;;;4959703;28;20454;-85
2023/03/04 07:34:44;;;;;;;47.97;35.27;;;1.90;99.90;;;;;;4971726;28;20199;-85
2023/03/04 07:37:13;;;;;;;47.80;35.63;;;2.00;99.90;;;;;;4957212;28;20220;-89
2023/03/04 07:39:41;;;;;;;49.80;34.27;;;2.10;99.90;;;;;;4955112;28;20207;-86
2023/03/04 07:42:07;;;;;;;48.40;35.83;;;2.20;99.90;;;;;;4953795;28;20605;-84
2023/03/04 07:44:39;;;;;;;52.43;37.37;;;2.30;99.90;;;;;;4958266;28;20608;-83
2023/03/04 07:47:06;;;;;;;49.67;34.57;;;2.40;99.90;;;;;;4959068;28;20273;-85
2023/03/04 07:49:33;;;;;;;49.97;36.00;;;2.60;99.90;;;;;;4953082;28;20226;-85
2023/03/04 07:52:03;;;;;;;43.63;33.57;;;2.80;99.90;;;;;;4957017;28;20231;-78
2023/03/04 07:54:31;;;;;;;46.13;35.00;;;3.10;99.90;;;;;;4955664;28;20206;-79
2023/03/04 07:56:58;;;;;;;47.43;33.57;;;3.50;99.90;;;;;;4952642;28;20246;-78
2023/03/04 07:59:25;;;;;;;44.23;35.23;;;4.00;99.90;;;;;;4951394;28;20199;-79
2023/03/04 08:01:51;;;;;;;48.47;35.57;;;4.20;99.90;;;;;;4951789;28;20306;-78
2023/03/04 08:04:18;;;;;;;40.70;33.43;;;4.30;99.90;;;;;;4953298;28;20241;-80
2023/03/04 08:06:47;;;;;;;47.10;34.17;;;4.60;99.90;;;;;;4952881;29;20198;-79
2023/03/04 08:09:14;;;;;;;46.47;34.83;;;4.60;99.90;;;;;;4952248;28;20241;-79
2023/03/04 08:11:42;;;;;;;43.17;33.23;;;4.70;99.90;;;;;;4952220;28;20253;-83
2023/03/04 08:14:11;;;;;;;45.57;34.67;;;4.60;99.90;;;;;;4951970;28;20199;-86
2023/03/04 08:16:38;;;;;;;44.53;32.37;;;4.40;99.90;;;;;;4952132;28;20212;-85
2023/03/04 08:19:05;;;;;;;42.40;33.27;;;4.30;99.90;;;;;;4952401;29;20678;-85
2023/03/04 08:21:32;;;;;;;43.93;32.50;;;4.10;99.90;;;;;;4953212;28;20220;-79
2023/03/04 08:24:02;;;;;;;48.60;32.63;;;4.00;99.90;;;;;;4955501;28;20210;-79
2023/03/04 08:26:33;;;;;;;38.97;30.17;;;3.80;99.90;;;;;;4954862;28;20203;-79
2023/03/04 08:29:03;;;;;;;39.27;30.80;;;3.60;99.90;;;;;;4955857;28;20229;-79
2023/03/04 08:31:31;;;;;;;44.47;30.20;;;3.40;99.90;;;;;;4956753;28;20219;-79
2023/03/04 08:33:58;;;;;;;39.97;29.93;;;3.00;99.90;;;;;;4956874;28;20789;-79
2023/03/04 08:36:24;;;;;;;40.40;30.30;;;3.00;99.90;;;;;;4948917;28;20665;-79
2023/03/04 08:38:51;;;;;;;41.40;29.83;;;3.00;99.90;;;;;;4956954;28;20226;-79
2023/03/04 08:41:19;;;;;;;35.63;27.03;;;2.90;99.90;;;;;;4955873;28;20218;-79
2023/03/04 08:43:46;;;;;;;34.87;26.90;;;3.10;99.90;;;;;;4956946;28;20563;-79
2023/03/04 08:46:14;;;;;;;37.63;26.47;;;3.20;99.90;;;;;;4956563;28;20206;-80
2023/03/04 08:48:40;;;;;;;35.60;25.83;;;3.20;99.90;;;;;;4960126;28;20696;-81
2023/03/04 08:51:09;;;;;;;31.00;24.10;;;3.30;99.90;;;;;;4958207;28;20297;-80
2023/03/04 08:53:37;;;;;;;30.17;24.93;;;3.10;99.90;;;;;;4959186;28;20684;-81
2023/03/04 08:56:04;;;;;;;30.80;25.37;;;3.20;99.90;;;;;;4957554;28;20209;-81
2023/03/04 08:58:31;;;;;;;37.27;26.87;;;3.10;99.90;;;;;;4959676;28;20735;-80
2023/03/04 09:01:00;;;;;;;33.07;25.57;;;2.80;99.90;;;;;;4961621;28;20230;-78
2023/03/04 09:03:28;;;;;;;36.70;27.33;;;2.70;99.90;;;;;;4958864;28;20234;-80
2023/03/04 09:05:55;;;;;;;31.93;25.03;;;2.80;99.90;;;;;;4957833;28;20206;-80
2023/03/04 09:08:22;;;;;;;33.37;26.03;;;2.80;99.90;;;;;;4959162;28;20210;-81
2023/03/04 09:10:52;;;;;;;32.83;25.53;;;2.70;99.90;;;;;;4960229;28;20635;-79
2023/03/04 09:13:19;;;;;;;38.30;28.00;;;2.70;99.90;;;;;;4959440;28;20203;-79
2023/03/04 09:15:47;;;;;;;34.70;25.90;;;2.60;99.90;;;;;;4959563;28;20557;-81
2023/03/04 09:18:15;;;;;;;36.07;25.10;;;2.50;99.90;;;;;;4958109;28;20207;-81
2023/03/04 09:20:43;;;;;;;34.90;25.30;;;2.50;99.90;;;;;;4959081;28;20242;-80
2023/03/04 09:23:10;;;;;;;29.93;25.23;;;2.50;99.90;;;;;;4959533;28;20202;-80
2023/03/04 09:25:38;;;;;;;33.70;25.47;;;2.50;99.90;;;;;;4957441;28;20198;-80
2023/03/04 09:28:06;;;;;;;35.70;24.90;;;2.40;99.90;;;;;;4957422;28;20254;-80
2023/03/04 09:30:33;;;;;;;33.20;24.27;;;2.40;99.90;;;;;;4957733;28;20617;-80
2023/03/04 09:33:00;;;;;;;32.37;23.57;;;2.20;99.90;;;;;;4957182;28;20209;-83
2023/03/04 09:35:28;;;;;;;33.20;24.17;;;2.20;99.90;;;;;;4961590;28;20206;-79
2023/03/04 09:37:57;;;;;;;30.40;22.93;;;2.20;99.90;;;;;;4956626;28;20206;-83
2023/03/04 09:40:28;;;;;;;31.27;22.97;;;2.20;99.90;;;;;;4959289;28;20743;-79
2023/03/04 09:42:59;;;;;;;28.90;22.80;;;2.30;99.90;;;;;;4955266;28;20211;-79
2023/03/04 09:45:34;;;;;;;28.10;21.50;;;2.20;99.90;;;;;;4960506;28;20257;-86
2023/03/04 09:48:02;;;;;;;29.50;21.50;;;2.30;99.90;;;;;;4965078;28;20276;-83
2023/03/04 09:50:33;;;;;;;27.03;20.20;;;2.40;99.90;;;;;;4959638;28;20202;-82
2023/03/04 09:53:14;;;;;;;25.00;21.20;;;2.40;99.90;;;;;;4958127;28;20211;-82
2023/03/04 09:55:43;;;;;;;27.57;22.23;;;2.40;99.90;;;;;;4959241;28;20203;-82
2023/03/04 09:58:24;;;;;;;25.50;21.63;;;2.40;99.90;;;;;;4961625;28;20199;-81
2023/03/04 10:00:55;;;;;;;27.00;22.17;;;2.50;99.90;;;;;;4955999;28;20234;-79
2023/03/04 10:03:25;;;;;;;31.00;23.03;;;2.50;99.90;;;;;;4957396;28;20280;-79
2023/03/04 10:05:55;;;;;;;29.73;22.10;;;2.50;99.90;;;;;;4957885;28;20229;-82
2023/03/04 10:08:38;;;;;;;30.80;23.03;;;2.50;99.90;;;;;;4959971;28;20226;-79
2023/03/04 10:11:17;;;;;;;30.83;23.53;;;2.40;99.90;;;;;;4954042;28;20580;-80
2023/03/04 10:13:54;;;;;;;29.07;21.63;;;2.30;99.90;;;;;;4959143;28;20199;-78
2023/03/04 10:16:25;;;;;;;27.43;22.57;;;2.30;99.90;;;;;;4959136;28;20214;-81
2023/03/04 10:18:57;;;;;;;29.33;21.70;;;2.40;99.90;;;;;;4961990;28;20206;-83
2023/03/04 10:21:32;;;;;;;27.23;22.70;;;2.40;99.90;;;;;;4962236;28;20215;-83
2023/03/04 10:24:08;;;;;;;32.00;23.93;;;2.50;99.90;;;;;;4962107;28;20210;-83
2023/03/04 10:26:36;;;;;;;30.10;22.77;;;2.40;99.90;;;;;;4962381;29;20261;-83
2023/03/04 10:29:05;;;;;;;27.07;21.77;;;2.40;99.90;;;;;;4960361;28;20293;-81
2023/03/04 10:31:35;;;;;;;26.83;21.03;;;2.50;99.90;;;;;;4957568;28;20639;-81
2023/03/04 10:34:03;;;;;;;27.00;21.47;;;2.50;99.90;;;;;;4957849;28;20696;-80
2023/03/04 10:36:39;;;;;;;31.37;22.43;;;2.50;99.90;;;;;;4955105;28;20191;-79
2023/03/04 10:39:11;;;;;;;25.47;20.70;;;2.60;99.90;;;;;;4956088;28;20257;-81
2023/03/04 10:41:43;;;;;;;27.37;21.00;;;2.60;99.90;;;;;;4958079;28;20218;-81
2023/03/04 10:44:16;;;;;;;26.43;21.53;;;2.70;99.90;;;;;;4957720;28;20207;-80
2023/03/04 10:46:45;;;;;;;26.37;20.73;;;2.80;99.90;;;;;;4954689;28;20230;-79
2023/03/04 10:49:13;;;;;;;25.73;20.70;;;2.90;99.90;;;;;;4956261;28;20230;-79
2023/03/04 10:51:44;;;;;;;23.80;20.10;;;3.10;99.90;;;;;;4958772;28;20214;-81
2023/03/04 10:54:26;;;;;;;24.97;21.13;;;3.20;99.90;;;;;;4958849;28;20202;-80
2023/03/04 10:56:57;;;;;;;28.43;21.00;;;3.20;99.90;;;;;;4957077;28;20207;-79
2023/03/04 10:59:41;;;;;;;26.23;20.60;;;3.10;99.90;;;;;;4957781;28;20658;-79
2023/03/04 11:02:16;;;;;;;24.27;20.90;;;3.10;99.90;;;;;;4957267;28;20662;-81
2023/03/04 11:04:48;;;;;;;26.17;21.13;;;3.20;99.90;;;;;;4959948;28;20668;-80
2023/03/04 11:07:15;;;;;;;26.17;21.00;;;3.20;99.90;;;;;;4957856;28;20246;-79
2023/03/04 11:09:45;;;;;;;27.90;22.03;;;3.20;99.90;;;;;;4954068;28;20305;-79
2023/03/04 11:12:15;;;;;;;28.13;21.80;;;3.30;99.90;;;;;;4953932;28;20222;-78
2023/03/04 11:14:45;;;;;;;25.57;21.50;;;3.20;99.90;;;;;;4954292;28;20609;-78
2023/03/04 11:17:22;;;;;;;28.17;21.73;;;3.20;99.90;;;;;;4952328;28;20283;-78
2023/03/04 11:19:54;;;;;;;24.00;20.43;;;3.20;99.90;;;;;;4951002;28;20250;-78
2023/03/04 11:22:23;;;;;;;27.57;21.53;;;3.30;99.90;;;;;;4951957;28;20233;-79
2023/03/04 11:24:58;;;;;;;26.40;20.83;;;3.20;99.90;;;;;;4951859;28;20293;-78
2023/03/04 11:27:36;;;;;;;26.97;21.57;;;3.30;99.90;;;;;;4952586;28;20214;-81
2023/03/04 11:30:24;;;;;;;24.97;21.67;;;3.40;99.90;;;;;;4953350;28;20198;-82
2023/03/04 11:33:00;;;;;;;29.10;22.90;;;3.50;99.90;;;;;;4947833;28;20213;-81
2023/03/04 11:35:32;;;;;;;26.40;21.53;;;3.40;99.90;;;;;;4951691;28;20206;-81
2023/03/04 11:38:05;;;;;;;26.63;22.27;;;3.50;99.90;;;;;;4953807;28;20253;-81
2023/03/04 11:40:39;;;;;;;27.87;21.63;;;3.40;99.90;;;;;;4951461;28;20202;-80
2023/03/04 11:43:13;;;;;;;28.77;21.43;;;3.50;99.90;;;;;;4957502;28;20210;-79
2023/03/04 11:45:59;;;;;;;27.53;21.30;;;3.60;99.90;;;;;;4944263;28;20209;-79
2023/03/04 11:48:41;;;;;;;29.93;21.87;;;3.60;99.90;;;;;;4946958;28;20221;-79
2023/03/04 11:51:17;;;;;;;26.03;21.20;;;3.50;99.90;;;;;;4946829;28;20222;-84
2023/03/04 12:09:20;;;;;;;26.43;22.00;;;3.50;99.90;;;;;;4910447;29;20237;-79
2023/03/04 12:13:35;;;;;;;;;;;;;;;;;;;;;
2023/03/04 12:17:33;;;;;;;;;;;;;;;;;;;;;
2023/03/04 13:21:53;;;;;;;27.20;23.80;;;6.00;99.90;;;;;;4944138;23;20333;-80
2023/03/04 13:24:49;;;;;;;24.33;21.83;;;6.10;99.90;;;;;;4962003;28;20234;-84
2023/03/04 13:27:47;;;;;;;27.00;22.40;;;6.20;99.90;;;;;;4928221;28;20298;-83
2023/03/04 13:30:40;;;;;;;28.80;25.17;;;6.10;99.90;;;;;;4962181;28;20707;-84
2023/03/04 13:33:47;;;;;;;28.37;23.37;;;6.00;99.90;;;;;;4937246;28;20250;-85
2023/03/04 13:36:33;;;;;;;28.27;23.87;;;5.80;99.90;;;;;;4922210;29;20214;-83
2023/03/04 13:39:04;;;;;;;31.47;24.93;;;5.60;99.90;;;;;;4938935;29;20207;-83
2023/03/04 13:41:32;;;;;;;30.37;24.77;;;5.60;99.90;;;;;;4938773;28;20230;-83
2023/03/04 13:44:00;;;;;;;30.30;24.50;;;5.40;99.90;;;;;;4939639;29;20214;-85
2023/03/04 13:46:41;;;;;;;29.10;24.13;;;5.40;99.90;;;;;;4938491;28;20257;-84
2023/03/04 13:49:19;;;;;;;27.83;24.10;;;5.50;99.90;;;;;;4952119;29;20279;-82
2023/03/04 13:51:46;;;;;;;29.07;24.47;;;5.50;99.90;;;;;;4930158;29;20229;-82
2023/03/04 13:54:26;;;;;;;26.93;24.03;;;5.50;99.90;;;;;;4952047;29;20305;-80
2023/03/04 13:57:11;;;;;;;30.20;25.03;;;5.50;99.90;;;;;;4948565;29;20234;-81
2023/03/04 13:59:41;;;;;;;30.70;23.57;;;5.50;99.90;;;;;;4929137;29;20208;-82
2023/03/04 14:02:14;;;;;;;30.13;24.87;;;5.60;99.90;;;;;;4935588;29;20320;-82
2023/03/04 14:04:43;;;;;;;29.20;24.37;;;5.70;99.90;;;;;;4935619;29;20209;-82
2023/03/04 14:07:24;;;;;;;32.23;26.17;;;5.80;99.90;;;;;;4936770;29;20197;-82
2023/03/04 14:09:59;;;;;;;31.00;25.17;;;5.70;99.90;;;;;;4936743;29;20300;-82
2023/03/04 14:12:28;;;;;;;29.37;25.13;;;5.70;99.90;;;;;;4936560;29;20794;-82
2023/03/04 14:14:58;;;;;;;28.60;24.17;;;5.70;99.90;;;;;;4935469;29;20210;-82
2023/03/04 14:17:29;;;;;;;29.90;25.13;;;5.60;99.90;;;;;;4934939;29;20202;-83
2023/03/04 14:19:57;;;;;;;30.30;25.73;;;5.60;99.90;;;;;;4934719;28;20211;-82
2023/03/04 14:22:26;;;;;;;30.80;25.83;;;5.40;99.90;;;;;;4935306;29;20242;-83
2023/03/04 14:25:00;;;;;;;27.77;24.77;;;5.30;99.90;;;;;;4936354;29;20206;-81
2023/03/04 14:27:28;;;;;;;33.80;26.23;;;5.30;99.90;;;;;;4950156;29;20212;-81
2023/03/04 14:29:56;;;;;;;36.70;28.10;;;5.20;99.90;;;;;;4934859;28;20621;-82
2023/03/04 14:32:24;;;;;;;32.97;26.37;;;5.20;99.90;;;;;;4936866;29;20245;-82
2023/03/04 14:34:54;;;;;;;31.87;25.67;;;5.00;99.90;;;;;;4936055;29;20213;-82
2023/03/04 14:37:24;;;;;;;34.50;26.77;;;5.10;99.90;;;;;;4934319;29;20209;-81
2023/03/04 14:39:55;;;;;;;29.43;25.37;;;5.20;99.90;;;;;;4928971;29;20206;-80
2023/03/04 14:42:27;;;;;;;34.00;27.30;;;5.50;99.90;;;;;;4933534;29;20225;-81
2023/03/04 14:44:56;;;;;;;32.17;26.83;;;5.70;99.90;;;;;;4935485;29;20210;-83
2023/03/04 14:47:28;;;;;;;30.13;24.57;;;5.90;99.90;;;;;;4935730;29;20199;-78
2023/03/04 14:49:55;;;;;;;29.20;24.83;;;6.00;99.90;;;;;;4933616;29;20210;-79
2023/03/04 14:52:37;;;;;;;28.13;24.80;;;6.10;99.90;;;;;;4933446;29;20229;-78
2023/03/04 14:55:23;;;;;;;30.07;25.47;;;6.00;99.90;;;;;;4931422;28;20212;-79
2023/03/04 14:57:57;;;;;;;39.40;29.80;;;6.00;99.90;;;;;;4950484;28;20592;-78
2023/03/04 15:00:30;;;;;;;37.27;29.23;;;5.80;99.90;;;;;;4949073;28;20533;-78
2023/03/04 15:02:59;;;;;;;33.60;27.57;;;5.70;99.90;;;;;;4935467;29;20297;-79
2023/03/04 15:05:28;;;;;;;34.10;26.90;;;5.60;99.90;;;;;;4933250;29;20210;-79
2023/03/04 15:07:57;;;;;;;38.80;31.00;;;5.60;99.90;;;;;;4934224;29;20206;-79
2023/03/04 15:10:27;;;;;;;42.20;32.50;;;5.50;99.90;;;;;;4933782;29;20293;-79
2023/03/04 15:12:59;;;;;;;47.27;32.03;;;5.10;99.90;;;;;;4935780;29;20293;-78
2023/03/04 15:15:37;;;;;;;41.27;30.43;;;4.90;99.90;;;;;;4933615;29;20206;-79
2023/03/04 15:18:15;;;;;;;42.83;30.67;;;4.90;99.90;;;;;;4934000;29;20626;-79
2023/03/04 15:20:42;;;;;;;38.67;29.27;;;4.90;99.90;;;;;;4943466;28;20222;-80
2023/03/04 15:23:13;;;;;;;40.83;29.97;;;4.80;99.90;;;;;;4935021;28;20205;-81
2023/03/04 15:25:40;;;;;;;37.10;28.77;;;4.70;99.90;;;;;;4929354;29;20200;-80
2023/03/04 15:28:16;;;;;;;36.60;28.90;;;4.70;99.90;;;;;;4933182;28;20216;-80
2023/03/04 15:59:17;;;;;;;32.33;25.37;;;4.10;99.90;;;;;;4985427;28;20685;-79
2023/03/04 16:01:43;;;;;;;34.93;26.60;;;4.10;99.90;;;;;;4979940;28;20693;-79
2023/03/04 16:04:13;;;;;;;37.53;26.73;;;4.10;99.90;;;;;;4970668;28;20206;-80
2023/03/04 16:06:40;;;;;;;33.90;26.03;;;4.10;99.90;;;;;;4972976;28;20638;-79
2023/03/04 16:09:15;;;;;;;38.97;26.70;;;4.00;99.90;;;;;;4974493;28;20216;-79
2023/03/04 16:11:55;;;;;;;34.73;24.70;;;3.80;99.90;;;;;;4971115;28;20221;-79
2023/03/04 16:14:36;;;;;;;35.07;25.87;;;3.90;99.90;;;;;;4981180;28;20198;-78
2023/03/04 16:17:15;;;;;;;36.57;25.43;;;3.90;99.90;;;;;;4977590;28;20622;-78
2023/03/04 16:19:44;;;;;;;34.87;26.80;;;3.90;99.90;;;;;;4973790;28;20190;-79
2023/03/04 16:22:28;;;;;;;34.23;24.50;;;3.80;99.90;;;;;;4985456;28;20241;-79
2023/03/04 16:25:27;;;;;;;38.53;25.73;;;3.80;99.90;;;;;;4973125;28;20258;-79
2023/03/04 16:31:31;;;;;;;;;;;;;;;;;;;;;
2023/03/04 16:34:30;;;;;;;35.07;25.43;;;3.80;99.90;;;;;;4972731;28;20708;-78
2023/03/04 16:37:24;;;;;;;39.87;27.97;;;3.70;99.90;;;;;;4964274;28;20655;-79
2023/03/04 16:39:56;;;;;;;36.23;24.93;;;3.70;99.90;;;;;;4973618;28;20207;-78
2023/03/04 16:42:24;;;;;;;42.13;27.23;;;3.60;99.90;;;;;;4980041;28;20222;-78
2023/03/04 16:44:51;;;;;;;41.10;26.60;;;3.50;99.90;;;;;;4984312;28;20266;-80
2023/03/04 16:47:19;;;;;;;34.20;25.30;;;3.50;99.90;;;;;;4978193;28;20202;-80
2023/03/04 16:50:54;;;;;;;;;;;;;;;;;;;;;
2023/03/04 17:10:33;;;;;;;33.53;24.43;;;3.30;99.90;;;;;;4911907;29;20242;-82
2023/03/04 17:13:10;;;;;;;34.50;24.40;;;3.30;99.90;;;;;;4914051;29;20204;-83
2023/03/04 17:16:02;;;;;;;;;;;;;;;;;;;;;
2023/03/04 17:26:24;;;;;;;35.00;22.70;;;3.30;99.90;;;;;;4969072;28;20213;-81
2023/03/04 17:58:19;;;;;;;31.40;23.00;;;3.20;99.90;;;;;;4904273;29;20215;-83
2023/03/04 18:08:12;;;;;;;34.73;23.70;;;3.30;99.90;;;;;;4882386;29;20209;-80
2023/03/04 18:10:50;;;;;;;30.07;23.57;;;3.30;99.90;;;;;;4899926;29;20232;-86
2023/03/04 18:17:59;;;;;;;30.83;22.77;;;3.20;99.90;;;;;;4814440;29;20276;-85
2023/03/04 18:20:39;;;;;;;29.70;22.37;;;3.20;99.90;;;;;;4807165;29;20209;-83
2023/03/04 18:26:49;;;;;;;28.77;20.17;;;3.20;99.90;;;;;;4886387;29;20306;-77
2023/03/04 18:29:16;;;;;;;33.47;22.67;;;3.20;99.90;;;;;;4895798;29;20212;-77
2023/03/04 18:31:42;;;;;;;29.50;23.00;;;3.10;99.90;;;;;;4944482;29;20218;-79
2023/03/04 18:34:11;;;;;;;32.93;24.00;;;3.20;99.90;;;;;;4957337;28;20203;-78
2023/03/04 18:36:38;;;;;;;26.67;22.47;;;3.20;99.90;;;;;;4955072;28;20204;-78
2023/03/04 18:39:06;;;;;;;30.10;22.27;;;3.20;99.90;;;;;;4957238;28;20202;-81
2023/03/04 18:41:33;;;;;;;30.93;23.07;;;3.10;99.90;;;;;;4955281;28;20219;-82
2023/03/04 18:44:00;;;;;;;26.13;20.97;;;3.10;99.90;;;;;;4954480;28;20202;-81
2023/03/04 18:46:30;;;;;;;27.00;20.80;;;3.10;99.90;;;;;;4953666;28;20210;-81
2023/03/04 18:49:01;;;;;;;34.27;22.50;;;3.10;99.90;;;;;;4954499;28;20210;-81
2023/03/04 18:51:30;;;;;;;29.57;22.90;;;3.10;99.90;;;;;;4955502;28;20232;-81
2023/03/04 18:53:57;;;;;;;38.50;25.13;;;3.10;99.90;;;;;;4958195;28;20234;-83
2023/03/04 18:56:30;;;;;;;29.13;21.50;;;3.20;99.90;;;;;;4955229;28;20211;-84
2023/03/04 18:58:59;;;;;;;30.00;22.73;;;3.10;99.90;;;;;;4950078;28;20210;-82
2023/03/04 19:01:26;;;;;;;32.40;24.07;;;3.10;99.90;;;;;;4950369;28;20277;-82